Time;durP1;ratioP1;P1;durP2;ratioP2;P2;SDS_P1;SDS_P2;PMS_P1;PMS_P2;Temp;Humidity;BMP_temperature;BMP_pressure;BME280_temperature;BME280_humidity;BME280_pressure;Samples;Min_cycle;Max_cycle;Signal;HPM_P1;HPM_P2
2022/07/27 00:03:07;;;;;;;5.10;1.70;;;;;;;16.33;67.01;101636.41;6224494;28;20280;-65
2022/07/27 00:06:29;;;;;;;4.80;2.33;;;;;;;16.38;66.97;101644.09;6231169;28;20307;-67
2022/07/27 00:09:50;;;;;;;3.60;1.88;;;;;;;16.45;66.84;101639.75;6228998;28;20255;-65
2022/07/27 00:13:12;;;;;;;3.70;1.65;;;;;;;16.46;66.59;101636.00;6224861;28;20229;-65
2022/07/27 00:16:33;;;;;;;4.90;1.90;;;;;;;16.45;66.26;101637.91;6229597;28;20232;-65
2022/07/27 00:19:54;;;;;;;4.05;2.00;;;;;;;16.44;66.30;101630.72;6227279;28;20232;-66
2022/07/27 00:23:16;;;;;;;7.82;2.05;;;;;;;16.23;66.76;101640.22;6224057;28;20295;-66
2022/07/27 00:26:37;;;;;;;3.67;1.17;;;;;;;16.36;65.59;101624.34;6225645;28;20237;-66
2022/07/27 00:29:58;;;;;;;4.47;1.58;;;;;;;16.24;65.77;101631.91;6228833;28;20225;-65
2022/07/27 00:33:19;;;;;;;4.88;1.90;;;;;;;16.39;65.23;101637.66;6226926;28;20695;-66
2022/07/27 00:36:40;;;;;;;6.70;2.13;;;;;;;16.43;64.67;101631.75;6227476;28;20220;-67
2022/07/27 00:40:03;;;;;;;4.47;1.25;;;;;;;16.37;63.81;101635.09;6228704;28;20256;-65
2022/07/27 00:43:24;;;;;;;9.80;1.50;;;;;;;16.27;64.01;101619.84;6226158;28;20646;-66
2022/07/27 00:46:44;;;;;;;3.28;1.40;;;;;;;16.39;63.84;101624.03;6225910;28;20240;-65
2022/07/27 00:50:07;;;;;;;3.72;1.52;;;;;;;16.51;64.04;101628.28;6223352;28;20319;-67
2022/07/27 00:53:28;;;;;;;3.65;1.80;;;;;;;16.69;63.13;101629.09;6222325;28;20224;-66
2022/07/27 00:56:50;;;;;;;6.88;1.90;;;;;;;16.55;64.40;101630.53;6222998;28;20252;-66
2022/07/27 01:00:12;;;;;;;3.40;1.25;;;;;;;16.71;64.19;101635.25;6221404;28;21080;-67
2022/07/27 01:03:33;;;;;;;5.18;2.20;;;;;;;16.88;62.42;101630.78;6219497;28;20228;-64
2022/07/27 01:06:54;;;;;;;5.18;1.70;;;;;;;16.71;62.66;101629.81;6222724;28;20229;-66
2022/07/27 01:10:16;;;;;;;7.13;1.83;;;;;;;16.70;62.96;101639.00;6227374;28;20228;-66
2022/07/27 01:13:38;;;;;;;4.32;1.65;;;;;;;16.54;63.04;101638.88;6220413;28;20232;-66
2022/07/27 01:16:59;;;;;;;3.03;1.55;;;;;;;16.23;64.10;101634.78;6222653;28;20672;-66
2022/07/27 01:20:20;;;;;;;4.97;1.55;;;;;;;16.35;63.77;101630.81;6225843;28;20228;-65
2022/07/27 01:23:43;;;;;;;3.60;1.40;;;;;;;16.44;63.81;101627.13;6225145;28;20618;-67
2022/07/27 01:27:05;;;;;;;2.38;1.20;;;;;;;16.07;64.41;101626.41;6204406;28;20224;-66
2022/07/27 01:30:27;;;;;;;4.90;1.90;;;;;;;16.07;64.76;101624.56;6207103;28;20240;-64
2022/07/27 01:33:48;;;;;;;3.10;1.60;;;;;;;16.27;64.33;101623.41;6215165;28;20244;-66
2022/07/27 01:37:09;;;;;;;3.97;0.95;;;;;;;16.23;64.69;101623.91;6224027;28;20233;-65
2022/07/27 01:40:32;;;;;;;2.97;1.42;;;;;;;16.25;64.57;101627.31;6227595;28;20232;-65
2022/07/27 01:43:54;;;;;;;3.92;1.40;;;;;;;16.30;64.51;101623.09;6222781;28;20233;-65
2022/07/27 01:47:14;;;;;;;5.47;1.40;;;;;;;16.56;64.02;101626.78;6216060;28;20319;-65
2022/07/27 01:50:35;;;;;;;6.83;1.47;;;;;;;16.34;64.76;101629.94;6223829;28;20256;-66
2022/07/27 01:53:56;;;;;;;4.23;1.63;;;;;;;16.40;63.95;101628.47;6218598;28;20228;-65
2022/07/27 01:57:19;;;;;;;6.40;2.00;;;;;;;16.34;64.64;101616.34;6222334;28;20240;-65
2022/07/27 02:00:40;;;;;;;5.63;1.83;;;;;;;15.85;66.65;101616.84;6225495;28;20228;-66
2022/07/27 02:04:01;;;;;;;4.30;1.55;;;;;;;15.63;68.02;101601.78;6223090;28;20393;-66
2022/07/27 02:07:22;;;;;;;7.28;2.13;;;;;;;15.68;68.05;101614.94;6221858;28;20240;-64
2022/07/27 02:14:19;;;;;;;2.90;1.33;;;;;;;15.89;67.52;101618.25;6217198;28;20228;-66
2022/07/27 02:17:41;;;;;;;5.77;1.80;;;;;;;16.10;67.39;101609.81;6216434;28;20240;-66
2022/07/27 02:21:01;;;;;;;5.87;1.60;;;;;;;16.11;67.05;101612.34;6219775;28;20240;-66
2022/07/27 02:24:23;;;;;;;4.47;1.90;;;;;;;16.02;66.60;101609.72;6216550;28;20340;-66
2022/07/27 02:27:44;;;;;;;3.93;1.70;;;;;;;16.15;66.63;101611.03;6216642;28;20233;-66
2022/07/27 02:31:06;;;;;;;5.63;1.30;;;;;;;16.16;66.72;101607.31;6223488;28;20240;-64
2022/07/27 02:34:27;;;;;;;4.97;1.80;;;;;;;15.88;67.07;101605.63;6222138;28;20236;-65
2022/07/27 02:37:48;;;;;;;3.17;1.20;;;;;;;15.90;67.49;101609.06;6218117;28;20233;-66
2022/07/27 02:41:09;;;;;;;4.40;2.17;;;;;;;15.81;67.42;101613.53;6226991;28;20507;-66
2022/07/27 02:44:31;;;;;;;5.57;1.87;;;;;;;15.98;66.98;101620.03;6219542;28;20252;-66
2022/07/27 02:47:53;;;;;;;5.60;1.70;;;;;;;16.07;66.79;101616.41;6215482;28;20229;-65
2022/07/27 02:51:14;;;;;;;6.23;1.60;;;;;;;15.87;68.23;101615.66;6225764;28;20254;-65
2022/07/27 02:54:35;;;;;;;2.72;1.70;;;;;;;15.52;69.11;101621.00;6217595;28;20233;-66
2022/07/27 02:57:56;;;;;;;4.93;1.47;;;;;;;15.60;69.00;101626.56;6220006;28;20577;-65
2022/07/27 03:01:17;;;;;;;4.83;1.17;;;;;;;15.57;69.04;101628.69;6224601;28;20669;-66
2022/07/27 03:04:39;;;;;;;5.57;1.87;;;;;;;15.88;67.13;101621.97;6220313;28;20240;-66
2022/07/27 03:08:01;;;;;;;3.93;1.93;;;;;;;15.50;68.55;101616.75;6218865;28;20508;-65
2022/07/27 03:11:22;;;;;;;4.53;1.60;;;;;;;15.44;68.66;101614.59;6219930;28;20232;-65
2022/07/27 03:14:42;;;;;;;2.17;1.30;;;;;;;15.63;68.00;101615.38;6220240;28;20224;-66
2022/07/27 03:18:04;;;;;;;4.60;2.07;;;;;;;15.72;68.20;101614.47;6219266;28;20240;-65
2022/07/27 03:21:26;;;;;;;5.40;1.60;;;;;;;15.72;67.94;101627.22;6223317;28;20256;-66
2022/07/27 03:24:47;;;;;;;4.93;1.93;;;;;;;15.52;68.92;101629.16;6222320;28;20220;-65
2022/07/27 03:28:08;;;;;;;2.57;1.20;;;;;;;15.10;69.89;101620.53;6226146;28;20362;-66
2022/07/27 03:31:29;;;;;;;3.17;1.50;;;;;;;15.23;69.97;101629.22;6230425;28;20232;-65
2022/07/27 03:34:50;;;;;;;3.57;1.60;;;;;;;15.08;70.12;101629.84;6223170;28;20260;-66
2022/07/27 03:38:12;;;;;;;3.50;1.53;;;;;;;15.21;69.74;101631.22;6222926;28;20225;-66
2022/07/27 03:41:33;;;;;;;3.53;1.70;;;;;;;15.31;69.39;101633.06;6225254;28;20415;-65
2022/07/27 03:44:54;;;;;;;4.77;1.70;;;;;;;15.41;68.82;101625.75;6223241;28;20228;-66
2022/07/27 03:48:15;;;;;;;3.83;2.00;;;;;;;15.40;69.14;101635.75;6222270;28;21150;-65
2022/07/27 03:51:36;;;;;;;5.10;2.50;;;;;;;15.33;69.39;101631.94;6227547;28;20262;-66
2022/07/27 03:54:58;;;;;;;6.40;1.93;;;;;;;15.49;69.04;101632.19;6221022;28;20224;-65
2022/07/27 03:58:22;;;;;;;6.37;1.67;;;;;;;15.31;69.63;101628.47;6223057;28;20252;-65
2022/07/27 04:01:42;;;;;;;4.57;1.63;;;;;;;15.26;69.75;101617.22;6222166;28;20232;-66
2022/07/27 04:05:04;;;;;;;5.07;2.17;;;;;;;15.28;69.77;101620.63;6224231;28;20240;-65
2022/07/27 04:08:25;;;;;;;6.57;2.13;;;;;;;15.34;69.05;101625.47;6226154;28;20228;-64
2022/07/27 04:11:47;;;;;;;4.47;1.70;;;;;;;15.47;69.29;101617.88;6220228;28;20228;-63
2022/07/27 04:15:10;;;;;;;3.93;2.03;;;;;;;15.36;69.49;101636.19;6220587;28;21017;-66
2022/07/27 04:18:30;;;;;;;6.37;2.00;;;;;;;15.25;69.50;101631.78;6225639;28;20233;-67
2022/07/27 04:21:51;;;;;;;2.77;1.50;;;;;;;15.30;69.47;101637.66;6228611;28;20232;-65
2022/07/27 04:25:12;;;;;;;6.83;2.57;;;;;;;15.34;69.04;101640.91;6220804;28;20292;-65
2022/07/27 04:28:34;;;;;;;3.83;1.50;;;;;;;15.41;69.37;101637.47;6228253;28;20518;-64
2022/07/27 04:31:56;;;;;;;5.50;1.97;;;;;;;15.33;69.52;101631.06;6228906;28;20230;-64
2022/07/27 04:35:17;;;;;;;2.67;1.43;;;;;;;15.35;69.85;101639.94;6224597;28;20224;-67
2022/07/27 04:38:38;;;;;;;4.57;1.60;;;;;;;15.19;69.33;101637.81;6221274;28;20220;-69
2022/07/27 04:41:59;;;;;;;4.40;2.30;;;;;;;15.14;69.47;101648.28;6221174;28;20520;-66
2022/07/27 04:45:21;;;;;;;4.00;1.90;;;;;;;15.17;69.69;101639.81;6223862;28;20228;-66
2022/07/27 04:48:43;;;;;;;4.23;1.67;;;;;;;15.37;68.92;101640.63;6222072;28;20225;-66
2022/07/27 04:52:04;;;;;;;3.27;1.57;;;;;;;15.21;69.35;101652.09;6225566;28;20240;-68
2022/07/27 04:55:25;;;;;;;2.17;1.30;;;;;;;15.49;69.22;101640.34;6227871;28;20228;-66
2022/07/27 04:58:46;;;;;;;5.77;2.07;;;;;;;15.23;69.16;101650.09;6223121;28;20233;-66
2022/07/27 05:02:08;;;;;;;6.30;2.40;;;;;;;15.38;69.33;101643.19;6213835;28;20257;-65
2022/07/27 05:05:29;;;;;;;5.93;1.70;;;;;;;15.42;68.77;101644.59;6216843;28;20236;-64
2022/07/27 05:08:51;;;;;;;7.93;2.40;;;;;;;15.64;67.81;101646.13;6214319;28;20228;-64
2022/07/27 05:12:11;;;;;;;4.93;1.77;;;;;;;15.69;67.83;101646.53;6214323;28;20228;-66
2022/07/27 05:15:32;;;;;;;5.00;1.92;;;;;;;15.68;67.90;101642.97;6209231;28;20786;-65
2022/07/27 05:18:55;;;;;;;5.57;1.60;;;;;;;15.49;68.66;101647.63;6219518;28;20335;-66
2022/07/27 05:22:16;;;;;;;6.63;2.67;;;;;;;15.36;69.11;101647.06;6224321;28;20347;-66
2022/07/27 05:25:37;;;;;;;4.63;1.37;;;;;;;15.44;68.55;101655.34;6228761;28;20414;-66
2022/07/27 05:28:58;;;;;;;3.13;1.60;;;;;;;15.62;68.04;101659.88;6227610;28;20216;-65
2022/07/27 05:32:19;;;;;;;4.37;1.37;;;;;;;15.85;67.22;101663.91;6225019;28;20736;-64
2022/07/27 05:35:41;;;;;;;4.40;1.80;;;;;;;16.10;66.48;101661.50;6226508;28;21017;-67
2022/07/27 05:39:02;;;;;;;6.73;1.53;;;;;;;15.73;67.57;101670.53;6228300;28;20232;-67
2022/07/27 05:42:23;;;;;;;5.43;1.73;;;;;;;15.77;68.33;101669.25;6219587;28;20605;-65
2022/07/27 05:45:44;;;;;;;2.93;1.80;;;;;;;15.80;68.42;101678.97;6225746;28;20727;-67
2022/07/27 05:49:05;;;;;;;6.07;2.43;;;;;;;15.90;68.12;101677.91;6224774;28;20637;-65
2022/07/27 05:52:27;;;;;;;4.87;1.57;;;;;;;15.87;67.62;101675.47;6227071;28;20340;-68
2022/07/27 05:55:51;;;;;;;3.37;1.20;;;;;;;16.12;66.77;101682.09;6225044;28;20231;-66
2022/07/27 05:59:12;;;;;;;4.00;1.73;;;;;;;16.14;67.38;101682.81;6225601;28;20555;-65
2022/07/27 06:02:33;;;;;;;3.73;1.60;;;;;;;16.30;67.11;101682.13;6227460;28;20240;-66
2022/07/27 06:07:57;;;;;;;5.53;2.40;;;;;;;16.34;66.27;101688.97;6228527;28;20224;-66
2022/07/27 06:09:37;;;;;;;4.23;2.10;;;;;;;16.46;66.05;101698.59;6228079;28;20255;-66
2022/07/27 06:12:59;;;;;;;6.17;2.03;;;;;;;16.17;66.42;101697.94;6227793;28;20232;-66
2022/07/27 06:16:20;;;;;;;8.00;2.93;;;;;;;16.22;66.80;101706.50;6224008;28;20252;-65
2022/07/27 06:19:41;;;;;;;4.30;1.67;;;;;;;16.32;67.67;101715.47;6217975;28;20228;-70
2022/07/27 06:23:03;;;;;;;7.30;1.77;;;;;;;16.19;69.51;101710.38;6224479;28;20233;-67
2022/07/27 06:26:25;;;;;;;4.63;1.67;;;;;;;16.00;69.43;101705.91;6221096;28;20617;-66
2022/07/27 06:29:46;;;;;;;3.58;1.52;;;;;;;16.37;67.55;101699.56;6219562;28;20229;-66
2022/07/27 06:33:07;;;;;;;1.90;1.10;;;;;;;16.72;67.04;101707.78;6216585;28;20644;-66
2022/07/27 06:36:28;;;;;;;3.47;1.50;;;;;;;16.76;65.82;101710.03;6227353;28;20232;-66
2022/07/27 06:39:49;;;;;;;7.33;1.83;;;;;;;16.90;65.05;101707.78;6214083;28;20649;-66
2022/07/27 06:43:11;;;;;;;10.73;3.28;;;;;;;16.93;65.04;101710.19;6223978;28;20232;-66
2022/07/27 06:46:32;;;;;;;3.03;1.52;;;;;;;16.81;65.21;101709.56;6222129;28;20232;-67
2022/07/27 06:49:54;;;;;;;4.53;2.05;;;;;;;16.58;64.37;101714.59;6217019;28;20228;-65
2022/07/27 06:53:15;;;;;;;5.75;2.55;;;;;;;16.54;64.18;101709.66;6218700;28;20236;-66
2022/07/27 06:56:37;;;;;;;3.80;1.27;;;;;;;16.76;63.47;101718.22;6224334;28;20225;-67
2022/07/27 06:59:59;;;;;;;2.85;1.60;;;;;;;16.52;63.12;101714.38;6225139;28;20249;-64
2022/07/27 07:03:20;;;;;;;4.88;1.48;;;;;;;16.29;63.93;101715.78;6226117;28;20232;-66
2022/07/27 07:06:40;;;;;;;6.00;1.80;;;;;;;16.25;64.82;101715.22;6226375;28;20682;-66
2022/07/27 07:10:01;;;;;;;11.25;1.95;;;;;;;16.40;64.94;101716.41;6224087;28;20236;-67
2022/07/27 07:13:23;;;;;;;3.57;1.40;;;;;;;16.78;63.68;101713.47;6223077;28;20269;-66
2022/07/27 07:16:45;;;;;;;3.73;1.67;;;;;;;16.94;62.39;101722.81;6221928;28;20586;-66
2022/07/27 07:20:08;;;;;;;3.50;1.60;;;;;;;17.19;62.10;101717.38;6225384;28;20345;-66
2022/07/27 07:23:29;;;;;;;7.10;2.38;;;;;;;17.54;60.81;101730.13;6224371;28;20233;-65
2022/07/27 07:26:50;;;;;;;5.38;2.17;;;;;;;16.97;62.85;101728.78;6229179;28;20221;-66
2022/07/27 07:30:12;;;;;;;5.75;1.80;;;;;;;17.47;62.35;101724.44;6224052;28;20229;-66
2022/07/27 07:33:34;;;;;;;5.43;1.92;;;;;;;17.21;61.83;101728.16;6225064;28;20233;-66
2022/07/27 07:36:55;;;;;;;2.55;1.75;;;;;;;17.38;61.89;101724.50;6226985;28;20225;-66
2022/07/27 07:40:16;;;;;;;4.85;1.95;;;;;;;17.27;62.09;101724.78;6216697;28;20224;-67
2022/07/27 07:43:38;;;;;;;2.13;1.00;;;;;;;17.11;62.82;101714.59;6218191;28;20913;-66
2022/07/27 07:46:59;;;;;;;5.13;1.90;;;;;;;17.26;61.80;101710.28;6220191;28;20726;-65
2022/07/27 07:50:23;;;;;;;5.07;1.88;;;;;;;17.42;61.11;101715.84;6215802;28;20530;-66
2022/07/27 07:53:44;;;;;;;6.40;1.67;;;;;;;17.50;61.30;101724.13;6219591;28;20315;-66
2022/07/27 07:57:05;;;;;;;3.20;1.55;;;;;;;17.57;61.08;101727.06;6223906;28;20237;-66
2022/07/27 08:00:26;;;;;;;3.75;1.45;;;;;;;17.46;58.81;101722.69;6226846;28;20233;-68
2022/07/27 08:03:48;;;;;;;5.70;1.65;;;;;;;17.84;59.47;101726.03;6216323;28;20224;-67
2022/07/27 08:07:10;;;;;;;4.28;1.70;;;;;;;18.25;57.69;101719.75;6222634;28;20236;-67
2022/07/27 08:10:32;;;;;;;2.83;1.10;;;;;;;18.55;57.07;101721.03;6225034;28;20240;-67
2022/07/27 08:13:53;;;;;;;4.05;1.30;;;;;;;18.42;56.67;101721.50;6226772;28;20252;-66
2022/07/27 08:17:13;;;;;;;3.75;1.92;;;;;;;17.91;56.23;101711.59;6225869;28;20897;-68
2022/07/27 08:20:34;;;;;;;4.32;2.00;;;;;;;17.94;57.72;101732.25;6230674;28;20237;-66
2022/07/27 08:23:57;;;;;;;6.78;1.77;;;;;;;17.77;58.44;101735.91;6225842;28;20224;-65
2022/07/27 08:27:18;;;;;;;3.95;1.95;;;;;;;17.76;57.29;101726.84;6231398;28;20590;-66
2022/07/27 08:30:39;;;;;;;4.28;1.40;;;;;;;17.79;58.05;101748.34;6227460;28;20248;-65
2022/07/27 08:34:00;;;;;;;4.88;2.13;;;;;;;17.81;58.48;101751.78;6225799;28;20521;-65
2022/07/27 08:37:20;;;;;;;6.50;2.08;;;;;;;17.85;58.95;101752.31;6228213;28;20232;-66
2022/07/27 08:40:43;;;;;;;7.93;2.85;;;;;;;17.97;58.45;101756.47;6229669;28;20231;-66
2022/07/27 08:44:06;;;;;;;5.63;2.22;;;;;;;18.29;57.24;101753.91;6225650;28;20685;-66
2022/07/27 08:47:27;;;;;;;7.13;2.67;;;;;;;18.58;55.95;101750.78;6225193;28;20232;-66
2022/07/27 08:50:48;;;;;;;6.65;1.83;;;;;;;18.92;54.56;101752.38;6224536;28;20628;-66
2022/07/27 08:54:10;;;;;;;4.68;1.95;;;;;;;19.36;54.48;101752.09;6223722;28;20552;-66
2022/07/27 08:57:32;;;;;;;9.63;1.95;;;;;;;19.55;52.96;101754.44;6224784;28;22440;-69
2022/07/27 09:00:53;;;;;;;3.15;1.75;;;;;;;19.39;52.35;101741.66;6229085;28;20236;-69
2022/07/27 09:04:14;;;;;;;3.60;1.38;;;;;;;19.59;51.78;101748.47;6220213;28;20228;-69
2022/07/27 09:07:36;;;;;;;4.20;1.33;;;;;;;19.59;51.41;101755.81;6219566;28;20236;-70
2022/07/27 09:10:59;;;;;;;7.15;2.30;;;;;;;19.80;50.11;101748.78;6231694;28;20229;-69
2022/07/27 09:14:30;;;;;;;5.72;1.55;;;;;;;19.92;49.63;101754.75;6229666;28;20220;-69
2022/07/27 09:17:51;;;;;;;5.68;2.13;;;;;;;19.78;49.18;101750.84;6224486;28;20888;-70
2022/07/27 09:21:18;;;;;;;5.18;1.92;;;;;;;20.15;48.83;101744.72;6228041;28;20301;-70
2022/07/27 09:25:01;;;;;;;4.20;1.63;;;;;;;20.44;49.11;101752.34;6231847;28;20228;-69
2022/07/27 09:28:30;;;;;;;6.20;1.88;;;;;;;20.35;47.74;101747.94;6227538;28;20221;-69
2022/07/27 09:31:52;;;;;;;5.45;2.72;;;;;;;19.85;48.35;101754.59;6231176;28;20228;-70
2022/07/27 09:35:17;;;;;;;3.90;1.63;;;;;;;19.59;49.77;101767.63;6233534;28;20232;-69
2022/07/27 09:38:49;;;;;;;3.90;1.55;;;;;;;19.22;48.93;101767.25;6214189;28;20233;-70
2022/07/27 09:42:15;;;;;;;4.15;2.17;;;;;;;19.33;48.32;101766.94;6228298;28;20224;-72
2022/07/27 09:45:38;;;;;;;1.80;1.45;;;;;;;19.79;47.35;101760.78;6215007;28;20233;-70
2022/07/27 09:49:01;;;;;;;3.97;2.28;;;;;;;19.51;45.82;101755.81;6228781;28;20224;-71
2022/07/27 09:52:24;;;;;;;3.35;1.23;;;;;;;19.61;46.77;101751.88;6231831;28;20613;-70
2022/07/27 09:55:47;;;;;;;1.80;0.93;;;;;;;19.50;47.33;101751.41;6229866;28;20319;-70
2022/07/27 09:59:08;;;;;;;3.90;1.60;;;;;;;19.69;46.58;101749.13;6230254;28;20224;-70
2022/07/27 10:02:29;;;;;;;2.17;1.10;;;;;;;19.80;46.65;101746.03;6230318;28;20225;-69
2022/07/27 10:05:51;;;;;;;4.25;1.50;;;;;;;20.16;45.83;101748.31;6233396;28;20622;-71
2022/07/27 10:09:13;;;;;;;3.42;1.20;;;;;;;19.31;47.69;101747.09;6233421;28;20323;-70
2022/07/27 10:12:35;;;;;;;4.55;1.85;;;;;;;19.19;48.97;101751.22;6228588;28;20236;-69
2022/07/27 10:15:56;;;;;;;3.47;1.15;;;;;;;19.40;49.54;101762.50;6231487;28;20241;-70
2022/07/27 10:19:23;;;;;;;4.45;2.03;;;;;;;19.45;50.71;101753.78;6232910;28;20602;-71
2022/07/27 10:22:55;;;;;;;4.55;1.25;;;;;;;19.70;50.87;101770.00;6228989;28;20639;-70
2022/07/27 10:26:21;;;;;;;4.90;1.92;;;;;;;20.05;50.28;101762.41;6228158;28;20231;-70
2022/07/27 10:29:43;;;;;;;3.35;1.25;;;;;;;19.89;50.84;101769.63;6231291;28;20563;-70
2022/07/27 10:33:15;;;;;;;3.05;1.42;;;;;;;19.52;52.02;101774.81;6228532;28;20224;-70
2022/07/27 10:36:52;;;;;;;5.45;2.05;;;;;;;19.41;50.26;101769.69;6223535;28;20224;-70
2022/07/27 10:40:34;;;;;;;4.32;1.58;;;;;;;19.75;49.81;101772.22;6223060;28;20677;-70
2022/07/27 10:44:28;;;;;;;5.60;1.88;;;;;;;20.24;48.93;101765.59;6221833;28;20228;-74
2022/07/27 10:47:51;;;;;;;2.40;1.38;;;;;;;20.45;48.69;101757.66;6222688;28;21106;-72
2022/07/27 10:51:13;;;;;;;6.65;2.00;;;;;;;20.23;48.36;101763.06;6224862;28;20255;-72
2022/07/27 10:54:37;;;;;;;2.78;1.35;;;;;;;19.40;49.91;101769.88;6224517;28;20583;-70
2022/07/27 10:58:37;;;;;;;4.38;1.75;;;;;;;18.99;49.21;101768.94;6223294;28;20233;-71
2022/07/27 11:01:58;;;;;;;3.72;1.60;;;;;;;19.76;48.11;101776.66;6219673;28;20224;-71
2022/07/27 11:05:19;;;;;;;2.45;0.95;;;;;;;19.69;47.91;101765.53;6223327;28;21051;-70
2022/07/27 11:08:43;;;;;;;4.47;1.15;;;;;;;20.13;47.95;101773.34;6225644;28;20236;-72
2022/07/27 11:12:06;;;;;;;2.53;1.48;;;;;;;20.13;45.37;101771.41;6219650;28;20224;-72
2022/07/27 11:15:28;;;;;;;2.63;1.42;;;;;;;20.39;44.97;101768.47;6226816;28;20229;-71
2022/07/27 11:19:03;;;;;;;2.25;1.38;;;;;;;20.52;44.96;101774.22;6226358;28;21018;-72
2022/07/27 11:22:35;;;;;;;2.15;1.10;;;;;;;20.40;45.08;101771.00;6225857;28;20221;-72
2022/07/27 11:25:57;;;;;;;3.80;1.08;;;;;;;20.91;43.33;101769.53;6225243;28;20262;-72
2022/07/27 11:29:22;;;;;;;3.72;1.58;;;;;;;21.43;44.43;101777.91;6224591;28;20303;-71
2022/07/27 11:32:44;;;;;;;3.78;1.48;;;;;;;20.99;47.00;101785.94;6225910;28;20241;-71
2022/07/27 11:36:06;;;;;;;3.28;1.80;;;;;;;20.77;48.10;101795.00;6223987;28;20224;-72
2022/07/27 11:39:29;;;;;;;3.78;1.25;;;;;;;20.80;48.25;101796.53;6223971;28;20279;-73
2022/07/27 11:42:51;;;;;;;6.05;1.35;;;;;;;20.26;49.42;101793.66;6226218;28;20524;-71
2022/07/27 11:46:14;;;;;;;2.67;1.60;;;;;;;20.52;49.34;101799.75;6224287;28;20228;-72
2022/07/27 11:49:36;;;;;;;3.45;1.63;;;;;;;20.53;49.77;101798.69;6226758;28;22260;-71
2022/07/27 11:52:57;;;;;;;3.28;1.52;;;;;;;20.44;48.58;101794.28;6227718;28;20630;-72
2022/07/27 11:56:22;;;;;;;1.67;1.20;;;;;;;20.73;47.41;101801.88;6231073;28;20225;-72
2022/07/27 11:59:44;;;;;;;8.52;1.58;;;;;;;20.47;46.40;101793.06;6228333;28;20228;-72
2022/07/27 12:03:05;;;;;;;3.22;0.82;;;;;;;21.99;44.03;101787.50;6231843;28;20552;-72
2022/07/27 12:06:28;;;;;;;5.28;1.20;;;;;;;22.13;42.84;101804.00;6225694;28;20237;-73
2022/07/27 12:09:50;;;;;;;4.72;1.70;;;;;;;21.65;45.02;101800.88;6205708;28;20241;-70
2022/07/27 12:13:18;;;;;;;7.80;2.03;;;;;;;20.90;45.88;101799.88;6225511;28;20327;-72
2022/07/27 12:16:39;;;;;;;3.67;1.20;;;;;;;20.59;46.96;101802.59;6225135;28;20232;-72
2022/07/27 12:20:02;;;;;;;2.22;1.30;;;;;;;20.35;46.61;101797.25;6228400;28;20236;-69
2022/07/27 12:23:29;;;;;;;6.50;1.33;;;;;;;20.44;47.38;101810.72;6226759;28;20221;-72
2022/07/27 12:27:02;;;;;;;2.47;1.50;;;;;;;20.43;47.99;101810.91;6229316;28;20331;-72
2022/07/27 12:30:29;;;;;;;2.67;1.52;;;;;;;20.35;48.71;101805.47;6230508;28;20224;-71
2022/07/27 12:33:57;;;;;;;5.57;1.70;;;;;;;20.28;49.38;101810.78;6228851;28;20255;-72
2022/07/27 12:37:18;;;;;;;3.20;1.30;;;;;;;20.65;48.64;101832.88;6225699;28;20227;-72
2022/07/27 12:40:46;;;;;;;3.33;1.02;;;;;;;21.12;47.88;101810.03;6225450;28;20248;-72
2022/07/27 12:44:09;;;;;;;3.40;1.55;;;;;;;20.79;47.56;101811.25;6229822;28;20236;-72
2022/07/27 12:47:43;;;;;;;4.05;1.50;;;;;;;21.06;48.38;101808.03;6231806;28;20233;-73
2022/07/27 12:51:06;;;;;;;6.03;1.42;;;;;;;20.85;47.60;101808.66;6224840;28;20299;-71
2022/07/27 12:54:26;;;;;;;3.60;1.70;;;;;;;20.41;48.02;101808.34;6228042;28;20233;-72
2022/07/27 12:57:50;;;;;;;5.65;1.80;;;;;;;20.24;48.27;101811.31;6228995;28;20220;-71
2022/07/27 13:01:11;;;;;;;9.40;1.60;;;;;;;20.01;48.37;101816.63;6229436;28;20228;-72
2022/07/27 13:04:32;;;;;;;5.32;1.38;;;;;;;20.80;47.21;101802.00;6223773;28;20228;-72
2022/07/27 13:07:53;;;;;;;3.60;1.58;;;;;;;20.58;46.25;101811.88;6224178;28;20241;-71
2022/07/27 13:11:14;;;;;;;3.40;1.27;;;;;;;21.09;46.21;101813.16;6208890;28;20614;-72
2022/07/27 13:14:36;;;;;;;3.42;1.80;;;;;;;21.09;45.58;101824.97;6227626;28;20911;-72
2022/07/27 13:17:57;;;;;;;5.15;1.52;;;;;;;22.17;43.43;101804.50;6219984;28;20236;-72
2022/07/27 13:21:18;;;;;;;3.85;1.15;;;;;;;27.08;34.10;101795.91;6213245;28;20229;-74
2022/07/27 13:24:40;;;;;;;4.28;1.70;;;;;;;24.76;37.80;101800.06;6224576;28;20424;-73
2022/07/27 13:28:03;;;;;;;2.92;1.40;;;;;;;22.60;42.88;101805.53;6220639;28;20216;-73
2022/07/27 13:31:25;;;;;;;4.65;1.17;;;;;;;21.82;45.33;101813.47;6221107;28;20224;-72
2022/07/27 13:34:47;;;;;;;4.20;1.38;;;;;;;21.32;45.38;101819.50;6220829;28;20634;-72
2022/07/27 13:38:08;;;;;;;2.97;1.27;;;;;;;21.00;46.18;101815.06;6228865;28;20290;-73
2022/07/27 13:41:29;;;;;;;5.18;1.55;;;;;;;21.38;46.02;101816.88;6222792;28;20781;-72
2022/07/27 13:44:50;;;;;;;3.92;1.83;;;;;;;22.15;44.34;101806.56;6223173;28;20236;-72
2022/07/27 13:48:13;;;;;;;4.47;1.90;;;;;;;21.55;46.11;101812.09;6223209;28;20714;-72
2022/07/27 13:51:34;;;;;;;3.88;1.98;;;;;;;22.28;44.21;101815.84;6226170;28;20315;-74
2022/07/27 13:54:55;;;;;;;3.83;1.30;;;;;;;22.72;43.74;101806.72;6223475;28;20228;-72
2022/07/27 13:58:16;;;;;;;4.97;1.25;;;;;;;22.24;44.42;101803.53;6221832;28;20428;-74
2022/07/27 14:01:37;;;;;;;3.65;1.20;;;;;;;21.46;46.46;101810.47;6218396;28;20233;-72
2022/07/27 14:05:00;;;;;;;5.15;1.33;;;;;;;21.25;47.34;101810.31;6224653;28;20516;-71
2022/07/27 14:08:20;;;;;;;3.33;1.23;;;;;;;22.63;45.31;101807.91;6228927;28;20232;-73
2022/07/27 14:11:41;;;;;;;4.38;1.60;;;;;;;23.20;43.19;101802.44;6228044;28;20225;-72
2022/07/27 14:15:02;;;;;;;4.75;1.80;;;;;;;22.20;46.04;101806.84;6225198;28;20609;-72
2022/07/27 14:18:24;;;;;;;7.20;1.67;;;;;;;23.07;43.77;101789.41;6224369;28;20236;-72
2022/07/27 14:21:47;;;;;;;4.07;1.40;;;;;;;23.58;44.28;101799.25;6222909;28;20255;-73
2022/07/27 14:25:09;;;;;;;5.07;1.83;;;;;;;22.11;45.82;101784.09;6226690;28;20236;-73
2022/07/27 14:28:30;;;;;;;6.00;2.13;;;;;;;21.55;48.26;101800.28;6223985;28;20233;-72
2022/07/27 14:31:51;;;;;;;5.88;1.70;;;;;;;21.14;49.01;101792.38;6223262;28;20776;-73
2022/07/27 14:35:12;;;;;;;3.72;1.63;;;;;;;21.02;49.39;101793.84;6225056;28;20593;-72
2022/07/27 14:38:36;;;;;;;4.65;1.77;;;;;;;21.51;48.18;101793.47;6222410;28;20292;-72
2022/07/27 14:41:57;;;;;;;2.67;1.40;;;;;;;21.79;46.01;101802.78;6222274;28;20244;-72
2022/07/27 14:45:18;;;;;;;3.10;1.10;;;;;;;22.08;46.36;101797.38;6210394;28;20247;-72
2022/07/27 14:48:39;;;;;;;3.33;1.58;;;;;;;21.88;47.10;101796.22;6200385;28;20316;-73
2022/07/27 14:52:00;;;;;;;5.45;1.73;;;;;;;22.06;45.82;101789.34;6215194;28;20228;-72
2022/07/27 14:55:23;;;;;;;3.75;1.20;;;;;;;22.52;44.97;101783.63;6216254;28;20286;-73
2022/07/27 14:58:44;;;;;;;3.10;1.23;;;;;;;22.40;44.91;101779.66;6216317;28;20236;-72
2022/07/27 15:02:05;;;;;;;3.65;1.17;;;;;;;23.09;44.63;101779.06;6208275;28;20603;-72
2022/07/27 15:05:27;;;;;;;4.00;1.40;;;;;;;22.91;43.05;101779.47;6205802;28;20236;-72
2022/07/27 15:08:48;;;;;;;3.30;1.92;;;;;;;22.07;44.86;101776.47;6219532;28;20956;-72
2022/07/27 15:12:10;;;;;;;5.40;1.83;;;;;;;21.75;46.36;101790.47;6216293;28;20236;-72
2022/07/27 15:15:31;;;;;;;4.03;1.20;;;;;;;21.73;46.68;101782.44;6214899;28;20236;-74
2022/07/27 15:18:52;;;;;;;3.05;1.30;;;;;;;21.60;47.51;101790.44;6202143;28;20499;-74
2022/07/27 15:22:13;;;;;;;3.20;1.55;;;;;;;22.29;45.68;101772.75;6221176;28;20236;-72
2022/07/27 15:25:34;;;;;;;4.15;2.17;;;;;;;22.72;45.11;101774.59;6225153;28;20336;-72
2022/07/27 15:28:56;;;;;;;3.53;1.58;;;;;;;23.39;44.73;101771.53;6218566;28;20232;-73
2022/07/27 15:32:17;;;;;;;5.68;1.70;;;;;;;22.52;45.89;101773.47;6217526;28;20239;-72
2022/07/27 15:35:39;;;;;;;3.00;1.23;;;;;;;21.28;47.29;101772.38;6217014;28;20627;-73
2022/07/27 15:39:00;;;;;;;5.75;2.13;;;;;;;21.82;47.21;101781.34;6219663;28;20735;-75
2022/07/27 15:42:21;;;;;;;3.60;1.33;;;;;;;21.43;47.56;101781.50;6222482;28;20224;-72
2022/07/27 15:45:46;;;;;;;3.28;1.75;;;;;;;21.49;47.26;101779.91;6220622;28;20232;-73